createdAt,value
2018-03-02T00:00:37.185Z,97145.59
2018-03-02T00:03:04.606Z,97138.14
2018-03-02T00:05:32.038Z,97141.16
2018-03-02T00:07:59.466Z,97145.88
2018-03-02T00:10:27.370Z,97142.89
2018-03-02T00:12:54.787Z,97148.42
2018-03-02T00:15:22.211Z,97157.27
2018-03-02T00:17:49.630Z,97149.01
2018-03-02T00:20:17.053Z,97143.95
2018-03-02T00:22:44.466Z,97143.48
2018-03-02T00:25:11.887Z,97131.08
2018-03-02T00:27:39.304Z,97140.63
2018-03-02T00:30:06.717Z,97130.35
2018-03-02T00:32:34.133Z,97131.90
2018-03-02T00:35:01.548Z,97130.35
2018-03-02T00:37:28.970Z,97117.98
2018-03-02T00:39:56.380Z,97120.94
2018-03-02T00:42:23.803Z,97116.14
2018-03-02T00:44:51.226Z,97112.85
2018-03-02T00:47:18.641Z,97099.31
2018-03-02T00:49:46.054Z,97097.61
2018-03-02T00:52:13.478Z,97096.66
2018-03-02T00:54:40.885Z,97091.88
2018-03-02T00:57:08.310Z,97090.20
2018-03-02T00:59:35.716Z,97092.91
2018-03-02T01:02:03.141Z,97101.91
2018-03-02T01:04:30.557Z,97090.10
2018-03-02T01:06:58.905Z,97089.88
2018-03-02T01:09:26.304Z,97084.83
2018-03-02T01:11:53.736Z,97080.86
2018-03-02T01:14:21.160Z,97084.16
2018-03-02T01:16:48.574Z,97068.22
2018-03-02T01:19:15.985Z,97067.08
2018-03-02T01:21:43.402Z,97067.22
2018-03-02T01:24:10.805Z,97066.66
2018-03-02T01:26:38.230Z,97067.08
2018-03-02T01:29:05.663Z,97066.73
2018-03-02T01:31:33.091Z,97068.09
2018-03-02T01:34:00.509Z,97059.74
2018-03-02T01:36:27.931Z,97062.01
2018-03-02T01:38:55.341Z,97067.67
2018-03-02T01:41:22.764Z,97069.58
2018-03-02T01:43:50.165Z,97059.50
2018-03-02T01:46:17.605Z,97049.55
2018-03-02T01:48:45.018Z,97045.04
2018-03-02T01:51:24.403Z,97038.11
2018-03-02T01:53:51.816Z,97029.95
2018-03-02T01:56:19.223Z,97025.91
2018-03-02T01:58:46.648Z,97041.05
2018-03-02T02:01:14.067Z,97038.23
2018-03-02T02:03:41.489Z,97028.45
2018-03-02T02:06:08.906Z,97020.51
2018-03-02T02:08:36.347Z,97024.47
2018-03-02T02:11:03.758Z,97018.41
2018-03-02T02:13:31.172Z,97015.94
2018-03-02T02:15:58.581Z,97000.94
2018-03-02T02:18:26.846Z,97004.64
2018-03-02T02:20:54.266Z,97016.35
2018-03-02T02:23:22.133Z,97025.38
2018-03-02T02:25:49.549Z,96997.95
2018-03-02T02:28:16.971Z,96998.70
2018-03-02T02:30:44.385Z,97003.66
2018-03-02T02:33:11.806Z,97003.22
2018-03-02T02:35:39.219Z,97001.39
2018-03-02T02:38:06.637Z,97005.72
2018-03-02T02:40:34.037Z,97005.72
2018-03-02T02:43:01.720Z,96992.93
2018-03-02T02:45:29.147Z,96999.28
2018-03-02T02:47:56.556Z,96985.91
2018-03-02T02:50:24.005Z,96980.86
2018-03-02T02:52:51.412Z,96988.30
2018-03-02T02:55:18.821Z,96986.47
2018-03-02T02:57:46.234Z,96976.53
2018-03-02T03:00:13.657Z,96981.78
2018-03-02T03:02:41.067Z,96985.91
2018-03-02T03:05:08.492Z,96982.15
2018-03-02T03:07:35.929Z,96988.17
2018-03-02T03:10:03.357Z,96995.78
2018-03-02T03:12:30.752Z,96988.49
2018-03-02T03:14:58.180Z,96995.33
2018-03-02T03:17:25.603Z,96990.83
2018-03-02T03:19:53.021Z,96989.86
2018-03-02T03:22:20.428Z,96987.20
2018-03-02T03:24:47.847Z,96983.53
2018-03-02T03:27:15.253Z,96977.56
2018-03-02T03:29:42.673Z,96965.34
2018-03-02T03:32:10.093Z,96962.63
2018-03-02T03:34:37.506Z,96949.27
2018-03-02T03:37:04.937Z,96948.94
2018-03-02T03:39:32.346Z,96947.30
2018-03-02T03:41:59.756Z,96948.64
2018-03-02T03:44:27.170Z,96959.66
2018-03-02T03:46:54.582Z,96943.51
2018-03-02T03:49:21.994Z,96944.31
2018-03-02T03:51:49.406Z,96924.45
2018-03-02T03:54:16.822Z,96922.91
2018-03-02T03:56:44.232Z,96918.58
2018-03-02T03:59:12.172Z,96919.41
2018-03-02T04:01:39.583Z,96917.23
2018-03-02T04:04:07.007Z,96917.58
2018-03-02T04:06:34.461Z,96920.42
2018-03-02T04:09:01.883Z,96910.94
2018-03-02T04:11:29.297Z,96928.86
2018-03-02T04:13:56.718Z,96929.34
2018-03-02T04:16:24.142Z,96913.24
2018-03-02T04:18:51.549Z,96905.45
2018-03-02T04:21:18.964Z,96920.30
2018-03-02T04:23:46.381Z,96912.12
2018-03-02T04:26:13.801Z,96903.64
2018-03-02T04:28:41.222Z,96892.18
2018-03-02T04:31:08.642Z,96895.19
2018-03-02T04:33:36.066Z,96893.41
2018-03-02T04:36:03.504Z,96880.03
2018-03-02T04:38:30.902Z,96876.90
2018-03-02T04:40:58.313Z,96868.89
2018-03-02T04:43:25.712Z,96857.02
2018-03-02T04:45:53.132Z,96851.74
2018-03-02T04:48:20.541Z,96853.27
2018-03-02T04:50:47.960Z,96842.79
2018-03-02T04:53:15.356Z,96842.70
2018-03-02T04:55:42.780Z,96843.41
2018-03-02T04:58:10.188Z,96838.08
2018-03-02T05:00:37.613Z,96834.43
2018-03-02T05:03:05.054Z,96823.27
2018-03-02T05:05:32.464Z,96822.46
2018-03-02T05:07:59.868Z,96820.84
2018-03-02T05:10:27.295Z,96813.21
2018-03-02T05:12:54.698Z,96818.07
2018-03-02T05:15:22.116Z,96817.75
2018-03-02T05:17:49.541Z,96814.82
2018-03-02T05:20:16.962Z,96809.52
2018-03-02T05:22:44.380Z,96815.09
2018-03-02T05:25:11.807Z,96814.77
2018-03-02T05:27:39.209Z,96797.67
2018-03-02T05:30:07.416Z,96806.08
2018-03-02T05:32:34.840Z,96813.09
2018-03-02T05:35:02.248Z,96798.32
2018-03-02T05:37:29.673Z,96791.28
2018-03-02T05:39:57.085Z,96799.13
2018-03-02T05:42:24.522Z,96801.03
2018-03-02T05:44:52.222Z,96781.25
2018-03-02T05:47:19.638Z,96783.49
2018-03-02T05:49:47.046Z,96790.89
2018-03-02T05:52:14.467Z,96793.99
2018-03-02T05:54:41.864Z,96787.03
2018-03-02T05:57:09.299Z,96779.16
2018-03-02T05:59:36.712Z,96780.65
2018-03-02T06:02:04.129Z,96785.96
2018-03-02T06:04:31.553Z,96781.05
2018-03-02T06:06:59.361Z,96781.77
2018-03-02T06:09:26.710Z,96783.61
2018-03-02T06:11:54.137Z,96787.45
2018-03-02T06:14:21.551Z,96782.72
2018-03-02T06:16:48.980Z,96775.79
2018-03-02T06:19:16.394Z,96784.03
2018-03-02T06:21:43.796Z,96778.81
2018-03-02T06:24:11.226Z,96780.36
2018-03-02T06:26:39.549Z,96781.34
2018-03-02T06:29:06.978Z,96781.13
2018-03-02T06:31:34.404Z,96775.38
2018-03-02T06:34:01.882Z,96773.02
2018-03-02T06:36:29.276Z,96779.97
2018-03-02T06:38:57.389Z,96781.25
2018-03-02T06:41:24.797Z,96775.49
2018-03-02T06:43:52.228Z,96776.72
2018-03-02T06:46:19.629Z,96772.78
2018-03-02T06:48:47.048Z,96774.55
2018-03-02T06:51:14.463Z,96776.42
2018-03-02T06:53:41.885Z,96773.95
2018-03-02T06:56:09.285Z,96768.61
2018-03-02T06:58:36.704Z,96768.34
2018-03-02T07:01:04.122Z,96763.84
2018-03-02T07:03:31.545Z,96761.87
2018-03-02T07:05:58.957Z,96763.51
2018-03-02T07:08:26.369Z,96764.31
2018-03-02T07:10:53.784Z,96757.27
2018-03-02T07:13:21.193Z,96751.52
2018-03-02T07:15:48.755Z,96764.73
2018-03-02T07:18:16.170Z,96759.66
2018-03-02T07:20:43.584Z,96753.94
2018-03-02T07:23:11.912Z,96749.07
2018-03-02T07:25:39.319Z,96750.05
2018-03-02T07:28:06.745Z,96752.98
2018-03-02T07:30:34.157Z,96761.33
2018-03-02T07:33:02.124Z,96758.77
2018-03-02T07:35:29.538Z,96753.69
2018-03-02T07:37:56.936Z,96754.58
2018-03-02T07:40:24.352Z,96757.27
2018-03-02T07:42:51.757Z,96749.78
2018-03-02T07:45:19.185Z,96745.36
2018-03-02T07:47:46.593Z,96738.98
2018-03-02T07:50:14.009Z,96731.94
2018-03-02T07:52:41.430Z,96720.67
2018-03-02T07:55:08.847Z,96717.59
2018-03-02T07:57:36.263Z,96717.38
2018-03-02T08:00:03.691Z,96721.41
2018-03-02T08:02:31.088Z,96722.15
2018-03-02T08:04:58.518Z,96720.23
2018-03-02T08:07:25.924Z,96716.41
2018-03-02T08:09:53.338Z,96722.05
2018-03-02T08:12:20.741Z,96717.28
2018-03-02T08:14:48.162Z,96701.85
2018-03-02T08:17:15.575Z,96714.67
2018-03-02T08:19:42.985Z,96710.42
2018-03-02T08:22:10.399Z,96712.31
2018-03-02T08:24:37.801Z,96712.37
2018-03-02T08:27:05.231Z,96713.32
2018-03-02T08:29:32.632Z,96700.05
2018-03-02T08:32:00.050Z,96710.84
2018-03-02T08:34:27.480Z,96697.46
2018-03-02T08:36:54.891Z,96707.19
2018-03-02T08:39:22.307Z,96717.31
2018-03-02T08:41:49.721Z,96712.11
2018-03-02T08:44:17.129Z,96713.04
2018-03-02T08:46:44.561Z,96716.54
2018-03-02T08:49:11.954Z,96716.98
2018-03-02T08:51:39.373Z,96702.41
2018-03-02T08:54:06.793Z,96712.05
2018-03-02T08:56:34.211Z,96710.45
2018-03-02T08:59:01.618Z,96703.52
2018-03-02T09:01:29.034Z,96706.63
2018-03-02T09:03:56.453Z,96696.51
2018-03-02T09:06:23.862Z,96701.89
2018-03-02T09:08:51.287Z,96699.66
2018-03-02T09:11:18.701Z,96692.61
2018-03-02T09:13:46.991Z,96695.66
2018-03-02T09:16:14.402Z,96684.78
2018-03-02T09:18:41.810Z,96689.64
2018-03-02T09:21:09.224Z,96681.62
2018-03-02T09:23:36.648Z,96682.93
2018-03-02T09:26:04.055Z,96674.80
2018-03-02T09:28:31.475Z,96673.23
2018-03-02T09:30:58.885Z,96666.61
2018-03-02T09:33:26.298Z,96665.87
2018-03-02T09:35:53.720Z,96662.92
2018-03-02T09:38:21.131Z,96668.34
2018-03-02T09:40:48.545Z,96674.66
2018-03-02T09:43:15.948Z,96679.38
2018-03-02T09:45:43.356Z,96679.36
2018-03-02T09:48:10.772Z,96682.12
2018-03-02T09:50:38.182Z,96688.95
2018-03-02T09:53:05.599Z,96695.19
2018-03-02T09:55:33.012Z,96694.62
2018-03-02T09:58:00.437Z,96701.13
2018-03-02T10:00:27.844Z,96695.94
2018-03-02T10:02:55.269Z,96710.27
2018-03-02T10:05:22.674Z,96704.03
2018-03-02T10:07:50.097Z,96697.92
2018-03-02T10:10:17.502Z,96697.27
2018-03-02T10:12:44.917Z,96684.87
2018-03-02T10:15:12.329Z,96678.67
2018-03-02T10:17:39.748Z,96678.73
2018-03-02T10:20:07.152Z,96682.18
2018-03-02T10:22:34.569Z,96680.76
2018-03-02T10:25:01.984Z,96682.38
2018-03-02T10:27:29.402Z,96682.11
2018-03-02T10:29:56.821Z,96676.20
2018-03-02T10:32:24.232Z,96674.65
2018-03-02T10:34:51.647Z,96683.53
2018-03-02T10:37:19.072Z,96691.16
2018-03-02T10:39:46.482Z,96683.73
2018-03-02T10:42:13.893Z,96690.34
2018-03-02T10:44:41.301Z,96690.02
2018-03-02T10:47:08.704Z,96687.45
2018-03-02T10:49:36.130Z,96683.02
2018-03-02T10:52:03.541Z,96679.17
2018-03-02T10:54:30.970Z,96688.29
2018-03-02T10:56:58.378Z,96677.70
2018-03-02T10:59:25.810Z,96666.59
2018-03-02T11:01:55.058Z,96671.72
2018-03-02T11:04:37.482Z,96667.59
2018-03-02T11:07:04.891Z,96666.44
2018-03-02T11:09:32.305Z,96672.59
2018-03-02T11:11:59.721Z,96675.70
2018-03-02T11:14:27.148Z,96674.89
2018-03-02T11:16:54.553Z,96673.59
2018-03-02T11:19:22.911Z,96671.56
2018-03-02T11:21:50.325Z,96677.80
2018-03-02T11:24:17.738Z,96683.05
2018-03-02T11:26:45.151Z,96681.38
2018-03-02T11:29:12.557Z,96680.34
2018-03-02T11:31:39.964Z,96673.11
2018-03-02T11:34:07.378Z,96681.48
2018-03-02T11:36:34.782Z,96693.13
2018-03-02T11:39:02.198Z,96699.43
2018-03-02T11:41:29.603Z,96703.03
2018-03-02T11:43:57.020Z,96710.67
2018-03-02T11:46:24.426Z,96713.61
2018-03-02T11:48:51.848Z,96715.27
2018-03-02T11:51:19.246Z,96724.23
2018-03-02T11:53:46.657Z,96730.17
2018-03-02T11:56:14.059Z,96722.91
2018-03-02T11:58:41.477Z,96728.47
2018-03-02T12:01:08.880Z,96729.05
2018-03-02T12:03:36.377Z,96729.97
2018-03-02T12:06:03.796Z,96737.72
2018-03-02T12:08:31.204Z,96744.47
2018-03-02T12:10:58.608Z,96736.26
2018-03-02T12:13:26.028Z,96737.09
2018-03-02T12:15:53.443Z,96734.80
2018-03-02T12:18:20.845Z,96740.11
2018-03-02T12:20:48.261Z,96742.52
2018-03-02T12:23:15.666Z,96749.14
2018-03-02T12:25:43.082Z,96740.66
2018-03-02T12:28:10.485Z,96749.02
2018-03-02T12:30:37.894Z,96750.88
2018-03-02T12:33:05.297Z,96752.77
2018-03-02T12:35:32.750Z,96751.21
2018-03-02T12:38:00.170Z,96756.28
2018-03-02T12:40:27.580Z,96759.44
2018-03-02T12:42:55.236Z,96762.58
2018-03-02T12:45:22.654Z,96753.27
2018-03-02T12:47:50.052Z,96751.06
2018-03-02T12:50:17.476Z,96758.97
2018-03-02T12:52:44.886Z,96766.20
2018-03-02T12:55:12.339Z,96768.23
2018-03-02T12:57:39.705Z,96767.36
2018-03-02T13:00:07.120Z,96763.74
2018-03-02T13:02:34.547Z,96768.64
2018-03-02T13:05:01.973Z,96776.95
2018-03-02T13:07:29.375Z,96778.45
2018-03-02T13:09:56.794Z,96771.84
2018-03-02T13:12:24.193Z,96770.72
2018-03-02T13:14:51.625Z,96772.61
2018-03-02T13:17:19.026Z,96774.55
2018-03-02T13:19:46.457Z,96773.67
2018-03-02T13:22:25.513Z,96773.03
2018-03-02T13:24:52.927Z,96778.26
2018-03-02T13:27:32.389Z,96788.78
2018-03-02T13:29:59.816Z,96781.12
2018-03-02T13:32:27.215Z,96778.30
2018-03-02T13:35:17.482Z,96781.98
2018-03-02T13:37:44.886Z,96775.95
2018-03-02T13:40:24.183Z,96746.50
2018-03-02T13:42:51.641Z,96755.28
2018-03-02T13:45:19.048Z,96772.68
2018-03-02T13:50:59.569Z,96783.20
2018-03-02T13:53:26.979Z,96801.45
2018-03-02T13:55:54.398Z,96791.79
2018-03-02T13:58:21.795Z,96804.38
2018-03-02T14:00:49.200Z,96805.57
2018-03-02T14:03:28.408Z,96805.01
2018-03-02T14:05:55.830Z,96813.43
2018-03-02T14:08:23.246Z,96813.68
2018-03-02T14:10:50.664Z,96810.41
2018-03-02T14:13:18.070Z,96816.79
2018-03-02T14:15:45.489Z,96819.33
2018-03-02T14:18:12.901Z,96828.15
2018-03-02T14:20:40.305Z,96829.84
2018-03-02T14:23:07.720Z,96830.30
2018-03-02T14:25:35.136Z,96836.65
2018-03-02T14:28:02.556Z,96834.95
2018-03-02T14:30:29.962Z,96837.77
2018-03-02T14:32:57.969Z,96831.85
2018-03-02T14:35:25.380Z,96839.79
2018-03-02T14:37:52.800Z,96841.86
2018-03-02T14:40:20.210Z,96849.23
2018-03-02T14:42:48.391Z,96847.41
2018-03-02T14:45:15.817Z,96844.25
2018-03-02T14:47:43.227Z,96847.39
2018-03-02T14:50:10.638Z,96846.13
2018-03-02T14:52:38.061Z,96847.55
2018-03-02T14:55:05.800Z,96848.47
2018-03-02T14:57:33.202Z,96851.91
2018-03-02T15:00:00.607Z,96857.59
2018-03-02T15:02:28.782Z,96856.17
2018-03-02T15:04:56.196Z,96852.54
2018-03-02T15:07:23.615Z,96857.71
2018-03-02T15:09:51.025Z,96859.47
2018-03-02T15:12:18.440Z,96853.60
2018-03-02T15:14:45.855Z,96858.63
2018-03-02T15:17:13.265Z,96863.16
2018-03-02T15:19:40.684Z,96863.19
2018-03-02T15:22:08.099Z,96877.00
2018-03-02T15:24:35.524Z,96880.89
2018-03-02T15:27:02.927Z,96881.78
2018-03-02T15:29:30.921Z,96878.45
2018-03-02T15:31:58.328Z,96883.05
2018-03-02T15:34:25.744Z,96883.45
2018-03-02T15:36:53.154Z,96888.92
2018-03-02T15:39:20.573Z,96890.33
2018-03-02T15:41:47.976Z,96895.14
2018-03-02T15:44:15.403Z,96898.48
2018-03-02T15:46:42.801Z,96896.96
2018-03-02T15:49:10.230Z,96906.44
2018-03-02T15:51:37.638Z,96910.01
2018-03-02T15:54:05.097Z,96907.23
2018-03-02T15:56:32.506Z,96913.23
2018-03-02T15:58:59.912Z,96919.59
2018-03-02T16:01:27.326Z,96916.97
2018-03-02T16:03:54.741Z,96925.44
2018-03-02T16:06:22.149Z,96928.26
2018-03-02T16:08:49.571Z,96927.38
2018-03-02T16:11:16.967Z,96929.74
2018-03-02T16:13:44.396Z,96932.97
2018-03-02T16:16:11.805Z,96937.57
2018-03-02T16:18:39.223Z,96931.70
2018-03-02T16:21:06.644Z,96945.61
2018-03-02T16:23:34.042Z,96941.21
2018-03-02T16:26:01.469Z,96947.59
2018-03-02T16:28:28.890Z,96946.40
2018-03-02T16:30:56.309Z,96958.38
2018-03-02T16:33:23.729Z,96968.25
2018-03-02T16:35:51.141Z,96968.26
2018-03-02T16:38:18.550Z,96969.23
2018-03-02T16:40:45.967Z,96970.72
2018-03-02T16:43:13.376Z,96969.96
2018-03-02T16:45:40.797Z,96972.23
2018-03-02T16:48:08.210Z,96969.34
2018-03-02T16:50:35.632Z,96975.13
2018-03-02T16:53:03.453Z,96966.00
2018-03-02T16:55:30.870Z,96959.43
2018-03-02T16:57:58.276Z,96968.27
2018-03-02T17:00:25.697Z,96965.05
2018-03-02T17:02:53.114Z,96970.44
2018-03-02T17:05:20.530Z,96978.50
2018-03-02T17:07:47.939Z,96982.77
2018-03-02T17:10:15.352Z,96984.73
2018-03-02T17:12:42.767Z,96993.98
2018-03-02T17:15:10.190Z,96997.25
2018-03-02T17:17:37.602Z,97000.91
2018-03-02T17:20:05.027Z,97003.55
2018-03-02T17:22:32.433Z,97006.23
2018-03-02T17:24:59.852Z,97005.98
2018-03-02T17:27:27.256Z,97004.68
2018-03-02T17:29:54.673Z,97014.91
2018-03-02T17:32:22.416Z,97021.92
2018-03-02T17:34:50.512Z,97026.13
2018-03-02T17:37:17.946Z,97023.75
2018-03-02T17:39:45.362Z,97022.61
2018-03-02T17:42:12.789Z,97025.65
2018-03-02T17:44:40.202Z,97026.67
2018-03-02T17:47:08.221Z,97035.14
2018-03-02T17:49:35.629Z,97031.34
2018-03-02T17:52:03.049Z,97031.00
2018-03-02T17:54:30.459Z,97027.29
2018-03-02T17:56:57.872Z,97035.97
2018-03-02T17:59:25.300Z,97039.69
2018-03-02T18:01:52.713Z,97047.12
2018-03-02T18:04:20.114Z,97042.45
2018-03-02T18:06:47.524Z,97043.00
2018-03-02T18:09:14.930Z,97040.62
2018-03-02T18:11:42.353Z,97046.49
2018-03-02T18:14:09.761Z,97052.00
2018-03-02T18:16:37.189Z,97057.10
2018-03-02T18:19:04.599Z,97051.78
2018-03-02T18:21:32.276Z,97057.85
2018-03-02T18:24:00.379Z,97055.38
2018-03-02T18:26:28.585Z,97052.06
2018-03-02T18:28:56.001Z,97057.44
2018-03-02T18:31:23.424Z,97052.58
2018-03-02T18:33:50.839Z,97053.56
2018-03-02T18:36:18.263Z,97056.77
2018-03-02T18:38:45.685Z,97056.10
2018-03-02T18:41:13.097Z,97057.53
2018-03-02T18:43:40.521Z,97053.03
2018-03-02T18:46:07.931Z,97049.41
2018-03-02T18:48:35.342Z,97052.55
2018-03-02T18:51:02.744Z,97042.39
2018-03-02T18:53:30.168Z,97046.86
2018-03-02T18:55:57.573Z,97043.31
2018-03-02T18:58:24.997Z,97047.73
2018-03-02T19:00:52.421Z,97044.95
2018-03-02T19:03:19.864Z,97042.92
2018-03-02T19:05:47.256Z,97046.82
2018-03-02T19:08:14.685Z,97053.87
2018-03-02T19:10:42.097Z,97048.50
2018-03-02T19:13:09.519Z,97040.34
2018-03-02T19:15:36.923Z,97040.89
2018-03-02T19:18:04.336Z,97037.94
2018-03-02T19:20:31.742Z,97039.13
2018-03-02T19:22:59.160Z,97037.09
2018-03-02T19:25:26.688Z,97040.34
2018-03-02T19:27:54.109Z,97042.38
2018-03-02T19:30:21.531Z,97046.19
2018-03-02T19:32:48.948Z,97045.80
2018-03-02T19:35:16.570Z,97047.41
2018-03-02T19:37:43.990Z,97046.98
2018-03-02T19:40:11.411Z,97049.94
2018-03-02T19:42:39.589Z,97049.44
2018-03-02T19:45:07.001Z,97048.99
2018-03-02T19:47:34.432Z,97050.78
2018-03-02T19:50:01.859Z,97055.41
2018-03-02T19:52:29.296Z,97052.55
2018-03-02T19:54:56.689Z,97055.44
2018-03-02T19:57:24.105Z,97068.25
2018-03-02T19:59:51.533Z,97068.48
2018-03-02T20:02:18.956Z,97069.78
2018-03-02T20:04:46.943Z,97068.39
2018-03-02T20:07:14.346Z,97069.84
2018-03-02T20:09:41.881Z,97063.25
2018-03-02T20:12:09.190Z,97061.22
2018-03-02T20:14:36.608Z,97063.80
2018-03-02T20:17:04.905Z,97065.92
2018-03-02T20:19:32.333Z,97063.39
2018-03-02T20:21:59.748Z,97068.55
2018-03-02T20:24:27.171Z,97068.31
2018-03-02T20:26:54.578Z,97067.56
2018-03-02T20:29:22.001Z,97068.00
2018-03-02T20:31:49.418Z,97078.18
2018-03-02T20:34:16.833Z,97073.54
2018-03-02T20:36:44.253Z,97068.20
2018-03-02T20:39:11.831Z,97076.48
2018-03-02T20:41:39.236Z,97071.65
2018-03-02T20:44:06.747Z,97072.56
2018-03-02T20:46:34.193Z,97068.13
2018-03-02T20:49:01.916Z,97080.26
2018-03-02T20:51:29.313Z,97084.22
2018-03-02T20:53:56.737Z,97082.19
2018-03-02T20:56:24.149Z,97081.42
2018-03-02T20:58:52.381Z,97086.19
2018-03-02T21:01:20.724Z,97069.53
2018-03-02T21:03:48.134Z,97074.33
2018-03-02T21:06:15.557Z,97076.60
2018-03-02T21:08:43.170Z,97068.23
2018-03-02T21:11:10.582Z,97060.95
2018-03-02T21:13:38.478Z,97057.82
2018-03-02T21:16:05.914Z,97063.27
2018-03-02T21:18:33.329Z,97063.34
2018-03-02T21:21:00.750Z,97063.95
2018-03-02T21:23:28.173Z,97061.22
2018-03-02T21:25:55.597Z,97052.16
2018-03-02T21:28:23.272Z,97058.14
2018-03-02T21:30:50.680Z,97062.99
2018-03-02T21:33:18.306Z,97072.16
2018-03-02T21:35:45.733Z,97072.70
2018-03-02T21:38:13.151Z,97069.92
2018-03-02T21:40:41.191Z,97075.95
2018-03-02T21:43:08.600Z,97070.02
2018-03-02T21:45:36.018Z,97060.02
2018-03-02T21:48:03.426Z,97062.11
2018-03-02T21:50:30.858Z,97055.06
2018-03-02T21:52:58.263Z,97050.45
2018-03-02T21:55:25.686Z,97050.13
2018-03-02T21:57:53.366Z,97045.50
2018-03-02T22:02:38.393Z,97049.03
2018-03-02T22:05:05.833Z,97049.53
2018-03-02T22:07:33.234Z,97048.14
2018-03-02T22:10:00.658Z,97046.92
2018-03-02T22:12:28.073Z,97048.90
2018-03-02T22:14:55.481Z,97053.30
2018-03-02T22:17:22.916Z,97046.28
2018-03-02T22:19:50.752Z,97051.77
2018-03-02T22:22:18.166Z,97051.47
2018-03-02T22:24:45.588Z,97046.45
2018-03-02T22:27:13.005Z,97045.23
2018-03-02T22:29:40.418Z,97036.93
2018-03-02T22:32:07.846Z,97042.12
2018-03-02T22:34:35.258Z,97044.90
2018-03-02T22:37:02.698Z,97052.53
2018-03-02T22:39:30.113Z,97058.58
2018-03-02T22:41:57.541Z,97049.43
2018-03-02T22:44:24.953Z,97045.06
2018-03-02T22:46:52.367Z,97041.31
2018-03-02T22:49:19.784Z,97045.42
2018-03-02T22:51:47.997Z,97045.17
2018-03-02T22:54:15.409Z,97040.46
2018-03-02T22:56:42.833Z,97048.88
2018-03-02T22:59:10.246Z,97050.55
2018-03-02T23:01:37.671Z,97046.86
2018-03-02T23:04:05.086Z,97037.33
2018-03-02T23:06:32.508Z,97038.97
2018-03-02T23:08:59.930Z,97041.06
2018-03-02T23:11:27.361Z,97042.98
2018-03-02T23:13:54.773Z,97040.78
2018-03-02T23:16:22.196Z,97039.84
2018-03-02T23:18:49.604Z,97047.44
2018-03-02T23:21:17.023Z,97044.53
2018-03-02T23:23:44.452Z,97045.81
2018-03-02T23:26:12.978Z,97057.47
2018-03-02T23:28:40.407Z,97055.80
2018-03-02T23:31:07.820Z,97053.33
2018-03-02T23:33:35.250Z,97044.83
2018-03-02T23:36:02.670Z,97041.30
2018-03-02T23:38:30.083Z,97044.16
2018-03-02T23:40:57.492Z,97042.55
2018-03-02T23:43:24.914Z,97044.16
2018-03-02T23:45:52.341Z,97038.50
2018-03-02T23:48:19.771Z,97043.64
2018-03-02T23:50:47.172Z,97044.67
2018-03-02T23:53:14.601Z,97038.97
2018-03-02T23:55:42.021Z,97036.30
2018-03-02T23:58:09.441Z,97041.38
